首页
METAR-TAF:

METAR-TAF

机场 :

德布勒森, 匈牙利

纬度: 47-29N, 经度: 021-36E, 海拔: 108米

当前天气观测

该预报发布于46分钟前的16:45 UTC
风速1节,风向西南
温度 0°C
湿度 100%
气压 1045 hPa
能見度: 4800
阴天层高于1500英尺
轻雾

METAR: LHDC 201645Z AUTO 23001KT 4800 BR OVC015 00/M00 Q1045 NOSIG

时间: 18:31 (17:31 UTC)

预报

该预报发布于3小时和16分钟前的14:15 UTC
预报有效从20日的 15点(UTC)到 20日的 24点(UTC)
风速3节,风向多变
能見度: 6000
多云层高于2000英尺
短暂存在
从 20日的 15点(UTC)到 20日的 24点(UTC)
能見度: 3000
多云层高于1000英尺
轻雾
几率 30% :
短暂存在
从 20日的 21点(UTC)到 20日的 24点(UTC)
能見度: 0600
多云层高于200英尺
冻雾

TAF: LHDC 201415Z 2015/2024 VRB03KT 6000 BKN020 TEMPO 2015/2024 3000 BR BKN010 PROB30 TEMPO 2021/2024 0600 FZFG BKN002

超过4000个机场的气象观测和天气预报(METAR&TAF报告)。

可查询的气象台以黄色和红色小点在地图上表示。

将鼠标移到小点上方,可查看气象台名称。

然后点击查看天气观测和预报。

如需切换地图:点击带黑十字的绿色按钮放大地图;点击带横线的绿色按钮缩小地图;或者点击绿色箭头查看邻近地区的地图。


METAR-TAF: